Time,TemperatureF,DewpointF,PressureIn,WindDirection,WindDirectionDegrees,WindSpeedMPH,WindSpeedGustMPH,Humidity,HourlyPrecipIn,Conditions,Clouds,dailyrainin,SoftwareType,DateUTC
2013-07-23 00:03:00,64.2,36.0,29.71,North,0,0.0,0.0,35,0.00,,---,0.00,VWS V14.01,2013-07-23 07:03:00,
2013-07-23 00:08:00,64.0,36.6,29.71,North,0,0.0,0.0,36,0.00,,---,0.00,VWS V14.01,2013-07-23 07:08:00,
2013-07-23 00:13:00,63.9,36.4,29.71,North,0,0.0,0.0,36,0.00,,---,0.00,VWS V14.01,2013-07-23 07:13:00,
2013-07-23 00:18:00,63.5,36.1,29.71,North,0,0.0,0.0,36,0.00,,---,0.00,VWS V14.01,2013-07-23 07:18:00,
2013-07-23 00:23:00,63.1,35.8,29.71,North,0,0.0,0.0,36,0.00,,---,0.00,VWS V14.01,2013-07-23 07:23:00,
2013-07-23 00:29:00,63.0,36.3,29.71,North,0,0.0,0.0,37,0.00,,---,0.00,VWS V14.01,2013-07-23 07:29:00,
2013-07-23 00:34:00,62.6,36.7,29.71,North,0,0.0,0.0,38,0.00,,---,0.00,VWS V14.01,2013-07-23 07:34:00,
2013-07-23 00:40:00,62.2,36.3,29.71,North,0,0.0,0.0,38,0.00,,---,0.00,VWS V14.01,2013-07-23 07:40:00,
2013-07-23 00:46:00,62.1,36.8,29.71,North,0,0.0,0.0,39,0.00,,---,0.00,VWS V14.01,2013-07-23 07:46:00,
2013-07-23 00:52:00,61.9,36.7,29.71,North,0,0.0,0.0,39,0.00,,---,0.00,VWS V14.01,2013-07-23 07:52:00,
2013-07-23 00:58:00,61.7,37.2,29.71,North,0,0.0,0.0,40,0.00,,---,0.00,VWS V14.01,2013-07-23 07:58:00,
2013-07-23 01:03:00,61.5,37.0,29.71,North,0,0.0,0.0,40,0.00,,---,0.00,VWS V14.01,2013-07-23 08:03:00,
2013-07-23 01:09:00,61.3,36.8,29.71,North,0,0.0,0.0,40,0.00,,---,0.00,VWS V14.01,2013-07-23 08:09:00,
2013-07-23 01:15:00,61.2,37.3,29.71,North,0,0.0,0.0,41,0.00,,---,0.00,VWS V14.01,2013-07-23 08:15:00,
2013-07-23 01:21:00,61.2,37.3,29.71,North,0,0.0,0.0,41,0.00,,---,0.00,VWS V14.01,2013-07-23 08:21:00,
2013-07-23 01:27:00,61.0,37.8,29.71,North,0,0.0,0.0,42,0.00,,---,0.00,VWS V14.01,2013-07-23 08:27:00,
2013-07-23 01:32:00,60.8,37.6,29.71,North,0,0.0,0.0,42,0.00,,---,0.00,VWS V14.01,2013-07-23 08:32:00,
2013-07-23 01:38:00,60.4,37.9,29.71,North,0,0.0,0.0,43,0.00,,---,0.00,VWS V14.01,2013-07-23 08:38:00,
2013-07-23 01:43:00,60.3,38.3,29.71,North,0,0.0,0.0,44,0.00,,---,0.00,VWS V14.01,2013-07-23 08:43:00,
2013-07-23 01:48:00,59.9,38.5,29.71,North,0,0.0,0.0,45,0.00,,---,0.00,VWS V14.01,2013-07-23 08:48:00,
2013-07-23 01:53:00,59.7,38.4,29.71,North,0,0.0,0.0,45,0.00,,---,0.00,VWS V14.01,2013-07-23 08:53:00,
2013-07-23 01:59:00,59.5,38.8,29.71,North,0,0.0,0.0,46,0.00,,---,0.00,VWS V14.01,2013-07-23 08:59:00,
2013-07-23 02:05:00,59.4,38.6,29.71,North,0,0.0,0.0,46,0.00,,---,0.00,VWS V14.01,2013-07-23 09:05:00,
2013-07-23 02:10:00,59.2,38.4,29.71,North,0,0.0,0.0,46,0.00,,---,0.00,VWS V14.01,2013-07-23 09:10:00,
2013-07-23 02:16:00,59.2,39.0,29.71,North,0,0.0,0.0,47,0.00,,---,0.00,VWS V14.01,2013-07-23 09:16:00,
2013-07-23 02:21:00,59.0,38.8,29.71,North,0,0.0,0.0,47,0.00,,---,0.00,VWS V14.01,2013-07-23 09:21:00,
2013-07-23 02:27:00,58.8,39.2,29.71,North,0,0.0,0.0,48,0.00,,---,0.00,VWS V14.01,2013-07-23 09:27:00,
2013-07-23 02:32:00,58.6,39.0,29.71,North,0,0.0,0.0,48,0.00,,---,0.00,VWS V14.01,2013-07-23 09:32:00,
2013-07-23 02:38:00,58.5,39.4,29.71,North,0,0.0,0.0,49,0.00,,---,0.00,VWS V14.01,2013-07-23 09:38:00,
2013-07-23 02:43:00,58.5,39.9,29.71,North,0,0.0,0.0,50,0.00,,---,0.00,VWS V14.01,2013-07-23 09:43:00,
2013-07-23 02:49:00,58.3,40.2,29.71,North,0,0.0,0.0,51,0.00,,---,0.00,VWS V14.01,2013-07-23 09:49:00,
2013-07-23 02:54:00,58.1,40.6,29.71,North,0,0.0,0.0,52,0.00,,---,0.00,VWS V14.01,2013-07-23 09:54:00,
2013-07-23 02:59:00,58.1,41.1,29.71,North,0,0.0,0.0,53,0.00,,---,0.00,VWS V14.01,2013-07-23 09:59:00,
2013-07-23 03:04:00,57.9,41.4,29.74,North,0,0.0,0.0,54,0.00,,---,0.00,VWS V14.01,2013-07-23 10:04:00,
2013-07-23 03:09:00,57.9,41.9,29.74,North,0,0.0,0.0,55,0.00,,---,0.00,VWS V14.01,2013-07-23 10:09:00,
2013-07-23 03:15:00,57.9,42.3,29.71,North,0,0.0,0.0,56,0.00,,---,0.00,VWS V14.01,2013-07-23 10:15:00,
2013-07-23 03:21:00,57.7,42.2,29.71,North,0,0.0,0.0,56,0.00,,---,0.00,VWS V14.01,2013-07-23 10:21:00,
2013-07-23 03:26:00,57.7,42.6,29.71,North,0,0.0,0.0,57,0.00,,---,0.00,VWS V14.01,2013-07-23 10:26:00,
2013-07-23 03:31:00,57.7,43.1,29.71,North,0,0.0,0.0,58,0.00,,---,0.00,VWS V14.01,2013-07-23 10:31:00,
2013-07-23 03:37:00,57.7,43.5,29.71,North,0,0.0,0.0,59,0.00,,---,0.00,VWS V14.01,2013-07-23 10:37:00,
2013-07-23 03:42:00,57.7,43.1,29.71,North,0,0.0,0.0,58,0.00,,---,0.00,VWS V14.01,2013-07-23 10:42:00,
2013-07-23 03:48:00,57.7,43.1,29.74,North,0,0.0,0.0,58,0.00,,---,0.00,VWS V14.01,2013-07-23 10:48:00,
2013-07-23 03:53:00,57.7,43.1,29.74,North,0,0.0,0.0,58,0.00,,---,0.00,VWS V14.01,2013-07-23 10:53:00,
2013-07-23 03:59:00,57.6,42.9,29.74,North,0,0.0,0.0,58,0.00,,---,0.00,VWS V14.01,2013-07-23 10:59:00,
2013-07-23 04:05:00,57.6,43.4,29.74,North,0,0.0,0.0,59,0.00,,---,0.00,VWS V14.01,2013-07-23 11:05:00,
2013-07-23 04:10:00,57.6,43.8,29.74,North,0,0.0,0.0,60,0.00,,---,0.00,VWS V14.01,2013-07-23 11:10:00,
2013-07-23 04:15:00,57.6,44.2,29.74,North,0,0.0,0.0,61,0.00,,---,0.00,VWS V14.01,2013-07-23 11:15:00,
2013-07-23 04:21:00,57.6,44.2,29.74,North,0,0.0,0.0,61,0.00,,---,0.00,VWS V14.01,2013-07-23 11:21:00,
2013-07-23 04:27:00,57.4,44.1,29.74,North,0,0.0,0.0,61,0.00,,---,0.00,VWS V14.01,2013-07-23 11:27:00,
2013-07-23 04:32:00,57.4,44.1,29.74,North,0,0.0,0.0,61,0.00,,---,0.00,VWS V14.01,2013-07-23 11:32:00,
2013-07-23 04:38:00,57.2,43.5,29.74,North,0,0.0,0.0,60,0.00,,---,0.00,VWS V14.01,2013-07-23 11:38:00,
2013-07-23 04:44:00,57.2,43.9,29.74,North,0,0.0,0.0,61,0.00,,---,0.00,VWS V14.01,2013-07-23 11:44:00,
2013-07-23 04:50:00,57.2,43.9,29.74,North,0,0.0,0.0,61,0.00,,---,0.00,VWS V14.01,2013-07-23 11:50:00,
2013-07-23 04:56:00,57.0,44.6,29.74,North,0,0.0,0.0,63,0.00,,---,0.00,VWS V14.01,2013-07-23 11:56:00,
2013-07-23 05:01:00,56.8,44.8,29.74,North,0,0.0,0.0,64,0.00,,---,0.00,VWS V14.01,2013-07-23 12:01:00,
2013-07-23 05:07:00,56.8,45.2,29.74,North,0,0.0,0.0,65,0.00,,---,0.00,VWS V14.01,2013-07-23 12:07:00,
2013-07-23 05:12:00,56.8,45.6,29.74,North,0,0.0,0.0,66,0.00,,---,0.00,VWS V14.01,2013-07-23 12:12:00,
2013-07-23 05:17:00,56.7,45.4,29.74,North,0,0.0,0.0,66,0.00,,---,0.00,VWS V14.01,2013-07-23 12:17:00,
2013-07-23 05:22:00,56.5,45.3,29.74,North,0,0.0,0.0,66,0.00,,---,0.00,VWS V14.01,2013-07-23 12:22:00,
2013-07-23 05:27:00,56.5,46.1,29.74,North,0,0.0,0.0,68,0.00,,---,0.00,VWS V14.01,2013-07-23 12:27:00,
2013-07-23 05:33:00,56.3,45.9,29.74,North,0,0.0,0.0,68,0.00,,---,0.00,VWS V14.01,2013-07-23 12:33:00,
2013-07-23 05:38:00,56.5,46.1,29.74,North,0,0.0,0.0,68,0.00,,---,0.00,VWS V14.01,2013-07-23 12:38:00,
2013-07-23 05:43:00,56.5,46.5,29.74,North,0,0.0,0.0,69,0.00,,---,0.00,VWS V14.01,2013-07-23 12:43:00,
2013-07-23 05:48:00,56.7,46.2,29.74,North,0,0.0,0.0,68,0.00,,---,0.00,VWS V14.01,2013-07-23 12:48:00,
2013-07-23 05:54:00,56.7,45.8,29.74,North,0,0.0,0.0,67,0.00,,---,0.00,VWS V14.01,2013-07-23 12:54:00,
2013-07-23 06:00:00,56.7,43.8,29.74,North,0,0.0,0.0,62,0.00,,---,0.00,VWS V14.01,2013-07-23 13:00:00,
2013-07-23 06:05:00,56.7,42.5,29.74,North,0,0.0,0.0,59,0.00,,---,0.00,VWS V14.01,2013-07-23 13:05:00,
2013-07-23 06:10:00,56.8,39.9,29.74,North,0,0.0,0.0,53,0.00,,---,0.00,VWS V14.01,2013-07-23 13:10:00,
2013-07-23 06:16:00,57.4,38.9,29.74,North,0,0.0,0.0,50,0.00,,---,0.00,VWS V14.01,2013-07-23 13:16:00,
2013-07-23 06:21:00,57.7,38.7,29.74,North,0,0.0,0.0,49,0.00,,---,0.00,VWS V14.01,2013-07-23 13:21:00,
2013-07-23 06:27:00,58.1,38.5,29.74,North,0,0.0,0.0,48,0.00,,---,0.00,VWS V14.01,2013-07-23 13:27:00,
2013-07-23 06:33:00,58.3,38.2,29.74,North,0,0.0,0.0,47,0.00,,---,0.00,VWS V14.01,2013-07-23 13:33:00,
2013-07-23 06:38:00,58.5,37.8,29.74,North,0,0.0,0.0,46,0.00,,---,0.00,VWS V14.01,2013-07-23 13:38:00,
2013-07-23 06:44:00,58.6,37.4,29.74,North,0,0.0,0.0,45,0.00,,---,0.00,VWS V14.01,2013-07-23 13:44:00,
2013-07-23 06:50:00,59.0,37.1,29.74,North,0,0.0,0.0,44,0.00,,---,0.00,VWS V14.01,2013-07-23 13:50:00,
2013-07-23 06:56:00,59.2,36.7,29.74,North,0,0.0,0.0,43,0.00,,---,0.00,VWS V14.01,2013-07-23 13:56:00,
2013-07-23 07:02:00,59.4,36.3,29.74,North,0,0.0,0.0,42,0.00,,---,0.00,VWS V14.01,2013-07-23 14:02:00,
2013-07-23 07:07:00,59.5,36.5,29.74,North,0,0.0,0.0,42,0.00,,---,0.00,VWS V14.01,2013-07-23 14:07:00,
2013-07-23 07:13:00,60.3,36.5,29.74,North,0,0.0,0.0,41,0.00,,---,0.00,VWS V14.01,2013-07-23 14:13:00,
2013-07-23 07:18:00,61.0,35.9,29.74,North,0,0.0,0.0,39,0.00,,---,0.00,VWS V14.01,2013-07-23 14:18:00,
2013-07-23 07:23:00,61.3,36.2,29.74,North,0,0.0,0.0,39,0.00,,---,0.00,VWS V14.01,2013-07-23 14:23:00,
2013-07-23 07:29:00,61.7,36.5,29.74,North,0,0.0,0.0,39,0.00,,---,0.00,VWS V14.01,2013-07-23 14:29:00,
2013-07-23 07:35:00,61.3,34.9,29.74,North,0,0.0,0.0,37,0.00,,---,0.00,VWS V14.01,2013-07-23 14:35:00,
2013-07-23 07:40:00,61.3,34.9,29.74,North,0,0.0,0.0,37,0.00,,---,0.00,VWS V14.01,2013-07-23 14:40:00,
2013-07-23 07:46:00,62.1,35.5,29.74,North,0,0.0,0.0,37,0.00,,---,0.00,VWS V14.01,2013-07-23 14:46:00,
2013-07-23 07:51:00,62.4,35.8,29.74,North,0,0.0,0.0,37,0.00,,---,0.00,VWS V14.01,2013-07-23 14:51:00,
2013-07-23 07:56:00,62.6,35.3,29.74,North,0,0.0,0.0,36,0.00,,---,0.00,VWS V14.01,2013-07-23 14:56:00,
2013-07-23 08:01:00,63.1,35.8,29.74,North,0,0.0,0.0,36,0.00,,---,0.00,VWS V14.01,2013-07-23 15:01:00,
2013-07-23 08:06:00,63.1,35.8,29.74,North,0,0.0,0.0,36,0.00,,---,0.00,VWS V14.01,2013-07-23 15:06:00,
2013-07-23 08:12:00,63.3,35.2,29.74,North,0,0.0,0.0,35,0.00,,---,0.00,VWS V14.01,2013-07-23 15:12:00,
2013-07-23 08:18:00,63.3,35.9,29.74,North,0,0.0,0.0,36,0.00,,---,0.00,VWS V14.01,2013-07-23 15:18:00,
2013-07-23 08:23:00,63.5,36.1,29.74,North,0,0.0,0.0,36,0.00,,---,0.00,VWS V14.01,2013-07-23 15:23:00,
2013-07-23 08:28:00,63.5,35.4,29.74,North,0,0.0,0.0,35,0.00,,---,0.00,VWS V14.01,2013-07-23 15:28:00,
2013-07-23 08:33:00,64.4,36.2,29.74,North,0,0.0,0.0,35,0.00,,---,0.00,VWS V14.01,2013-07-23 15:33:00,
2013-07-23 08:39:00,64.9,35.9,29.74,North,0,0.0,0.0,34,0.00,,---,0.00,VWS V14.01,2013-07-23 15:39:00,
2013-07-23 08:45:00,65.3,35.5,29.74,North,0,0.0,0.0,33,0.00,,---,0.00,VWS V14.01,2013-07-23 15:45:00,
2013-07-23 08:51:00,64.9,35.2,29.74,North,0,0.0,0.0,33,0.00,,---,0.00,VWS V14.01,2013-07-23 15:51:00,
2013-07-23 08:56:00,65.3,35.5,29.74,North,0,0.0,0.0,33,0.00,,---,0.00,VWS V14.01,2013-07-23 15:56:00,
2013-07-23 09:02:00,66.6,35.8,29.74,North,0,0.0,0.0,32,0.00,,---,0.00,VWS V14.01,2013-07-23 16:02:00,
2013-07-23 09:07:00,66.9,35.3,29.74,North,0,0.0,0.0,31,0.00,,---,0.00,VWS V14.01,2013-07-23 16:07:00,
2013-07-23 09:12:00,66.9,35.3,29.74,North,0,0.0,0.0,31,0.00,,---,0.00,VWS V14.01,2013-07-23 16:12:00,
2013-07-23 09:17:00,66.9,35.3,29.74,North,0,0.0,0.0,31,0.00,,---,0.00,VWS V14.01,2013-07-23 16:17:00,
2013-07-23 09:22:00,67.8,34.4,29.74,North,0,0.0,0.0,29,0.00,,---,0.00,VWS V14.01,2013-07-23 16:22:00,
2013-07-23 09:28:00,68.5,34.2,29.74,North,0,0.0,0.0,28,0.00,,---,0.00,VWS V14.01,2013-07-23 16:28:00,
2013-07-23 09:34:00,69.4,34.0,29.74,North,0,0.0,0.0,27,0.00,,---,0.00,VWS V14.01,2013-07-23 16:34:00,
2013-07-23 09:39:00,69.8,34.3,29.74,North,0,0.0,0.0,27,0.00,,---,0.00,VWS V14.01,2013-07-23 16:39:00,
2013-07-23 09:45:00,69.8,33.4,29.74,North,0,0.0,0.0,26,0.00,,---,0.00,VWS V14.01,2013-07-23 16:45:00,
2013-07-23 09:50:00,70.2,33.7,29.74,North,0,0.0,0.0,26,0.00,,---,0.00,VWS V14.01,2013-07-23 16:50:00,
2013-07-23 09:55:00,70.0,33.5,29.74,North,0,0.0,0.0,26,0.00,,---,0.00,VWS V14.01,2013-07-23 16:55:00,
2013-07-23 10:00:00,70.5,34.0,29.74,North,0,0.0,0.0,26,0.00,,---,0.00,VWS V14.01,2013-07-23 17:00:00,
2013-07-23 10:05:00,70.9,33.3,29.74,North,0,0.0,0.0,25,0.00,,---,0.00,VWS V14.01,2013-07-23 17:05:00,
2013-07-23 10:11:00,70.9,33.3,29.74,North,0,0.0,0.0,25,0.00,,---,0.00,VWS V14.01,2013-07-23 17:11:00,
2013-07-23 10:16:00,71.2,32.6,29.74,North,0,0.0,0.0,24,0.00,,---,0.00,VWS V14.01,2013-07-23 17:16:00,
2013-07-23 10:22:00,71.6,32.9,29.74,North,0,0.0,0.0,24,0.00,,---,0.00,VWS V14.01,2013-07-23 17:22:00,
2013-07-23 10:28:00,71.6,32.9,29.74,North,0,0.0,0.0,24,0.00,,---,0.00,VWS V14.01,2013-07-23 17:28:00,
2013-07-23 10:33:00,72.0,33.2,29.74,North,0,0.0,0.0,24,0.00,,---,0.00,VWS V14.01,2013-07-23 17:33:00,
2013-07-23 10:39:00,73.0,33.1,29.74,North,0,0.0,0.0,23,0.00,,---,0.00,VWS V14.01,2013-07-23 17:39:00,
2013-07-23 10:44:00,73.9,32.7,29.74,North,0,0.0,0.0,22,0.00,,---,0.00,VWS V14.01,2013-07-23 17:44:00,
2013-07-23 10:50:00,74.5,33.2,29.74,North,0,0.0,0.0,22,0.00,,---,0.00,VWS V14.01,2013-07-23 17:50:00,
2013-07-23 10:55:00,74.8,33.5,29.74,North,0,0.0,0.0,22,0.00,,---,0.00,VWS V14.01,2013-07-23 17:55:00,
2013-07-23 11:01:00,75.2,33.8,29.74,North,0,0.0,0.0,22,0.00,,---,0.00,VWS V14.01,2013-07-23 18:01:00,
2013-07-23 11:06:00,74.5,33.2,29.74,North,0,0.0,0.0,22,0.00,,---,0.00,VWS V14.01,2013-07-23 18:06:00,
2013-07-23 11:11:00,74.7,33.3,29.74,North,0,0.0,0.0,22,0.00,,---,0.00,VWS V14.01,2013-07-23 18:11:00,
2013-07-23 11:16:00,74.8,33.5,29.71,North,0,0.0,0.0,22,0.00,,---,0.00,VWS V14.01,2013-07-23 18:16:00,
2013-07-23 11:21:00,75.0,33.6,29.71,North,0,0.0,0.0,22,0.00,,---,0.00,VWS V14.01,2013-07-23 18:21:00,
2013-07-23 11:27:00,76.1,33.4,29.71,North,0,0.0,0.0,21,0.00,,---,0.00,VWS V14.01,2013-07-23 18:27:00,
2013-07-23 11:32:00,76.8,34.0,29.71,North,0,0.0,0.0,21,0.00,,---,0.00,VWS V14.01,2013-07-23 18:32:00,
2013-07-23 11:38:00,77.5,34.6,29.71,North,0,0.0,0.0,21,0.00,,---,0.00,VWS V14.01,2013-07-23 18:38:00,
2013-07-23 11:44:00,77.5,34.6,29.71,North,0,0.0,0.0,21,0.00,,---,0.00,VWS V14.01,2013-07-23 18:44:00,
2013-07-23 11:49:00,77.4,34.4,29.71,North,0,0.0,0.0,21,0.00,,---,0.00,VWS V14.01,2013-07-23 18:49:00,
2013-07-23 11:54:00,77.4,34.4,29.71,North,0,0.0,0.0,21,0.00,,---,0.00,VWS V14.01,2013-07-23 18:54:00,
2013-07-23 11:59:00,78.4,34.1,29.71,North,0,0.0,0.0,20,0.00,,---,0.00,VWS V14.01,2013-07-23 18:59:00,
2013-07-23 12:04:00,79.5,35.0,29.71,North,0,0.0,0.0,20,0.00,,---,0.00,VWS V14.01,2013-07-23 19:04:00,
2013-07-23 12:11:00,79.0,34.5,29.71,North,0,0.0,0.0,20,0.00,,---,0.00,VWS V14.01,2013-07-23 19:11:00,
2013-07-23 12:18:00,80.4,35.7,29.71,North,0,0.0,0.0,20,0.00,,---,0.00,VWS V14.01,2013-07-23 19:18:00,
2013-07-23 12:23:00,80.8,34.7,29.71,North,0,0.0,0.0,19,0.00,,---,0.00,VWS V14.01,2013-07-23 19:23:00,
2013-07-23 12:29:00,80.4,35.7,29.71,North,0,0.0,0.0,20,0.00,,---,0.00,VWS V14.01,2013-07-23 19:29:00,
2013-07-23 12:35:00,80.2,35.6,29.71,North,0,0.0,0.0,20,0.00,,---,0.00,VWS V14.01,2013-07-23 19:35:00,
2013-07-23 12:40:00,81.1,35.0,29.71,North,0,0.0,0.0,19,0.00,,---,0.00,VWS V14.01,2013-07-23 19:40:00,
2013-07-23 12:46:00,81.5,35.3,29.71,North,0,0.0,0.0,19,0.00,,---,0.00,VWS V14.01,2013-07-23 19:46:00,
2013-07-23 12:51:00,81.7,35.5,29.71,North,0,0.0,0.0,19,0.00,,---,0.00,VWS V14.01,2013-07-23 19:51:00,
2013-07-23 12:57:00,81.9,35.6,29.71,North,0,0.0,0.0,19,0.00,,---,0.00,VWS V14.01,2013-07-23 19:57:00,
2013-07-23 13:05:00,81.9,35.6,29.68,North,0,0.0,0.0,19,0.00,,---,0.00,VWS V14.01,2013-07-23 20:05:00,
2013-07-23 13:11:00,82.4,36.0,29.68,North,0,0.0,0.0,19,0.00,,---,0.00,VWS V14.01,2013-07-23 20:11:00,
2013-07-23 13:16:00,82.4,31.8,29.68,North,0,0.0,0.0,16,0.00,,---,0.00,VWS V14.01,2013-07-23 20:16:00,
2013-07-23 13:22:00,82.2,33.1,29.68,North,0,0.0,0.0,17,0.00,,---,0.00,VWS V14.01,2013-07-23 20:22:00,
2013-07-23 13:27:00,81.3,32.4,29.68,North,0,0.0,0.0,17,0.00,,---,0.00,VWS V14.01,2013-07-23 20:27:00,
2013-07-23 13:34:00,82.0,33.0,29.68,North,0,0.0,0.0,17,0.00,,---,0.00,VWS V14.01,2013-07-23 20:34:00,
2013-07-23 13:40:00,82.6,31.9,29.68,North,0,0.0,0.0,16,0.00,,---,0.00,VWS V14.01,2013-07-23 20:40:00,
2013-07-23 13:45:00,83.1,32.3,29.68,North,0,0.0,0.0,16,0.00,,---,0.00,VWS V14.01,2013-07-23 20:45:00,
2013-07-23 13:50:00,83.5,32.6,29.68,North,0,0.0,0.0,16,0.00,,---,0.00,VWS V14.01,2013-07-23 20:50:00,
2013-07-23 13:57:00,83.5,32.6,29.68,North,0,0.0,0.0,16,0.00,,---,0.00,VWS V14.01,2013-07-23 20:57:00,
2013-07-23 14:02:00,83.1,32.3,29.68,North,0,0.0,0.0,16,0.00,,---,0.00,VWS V14.01,2013-07-23 21:02:00,
2013-07-23 14:08:00,83.5,32.6,29.68,North,0,0.0,0.0,16,0.00,,---,0.00,VWS V14.01,2013-07-23 21:08:00,
2013-07-23 14:13:00,83.5,32.6,29.68,North,0,0.0,0.0,16,0.00,,---,0.00,VWS V14.01,2013-07-23 21:13:00,
2013-07-23 14:19:00,83.8,29.6,29.68,North,0,0.0,0.0,14,0.00,,---,0.00,VWS V14.01,2013-07-23 21:19:00,
2013-07-23 14:25:00,84.0,29.8,29.68,North,0,0.0,0.0,14,0.00,,---,0.00,VWS V14.01,2013-07-23 21:25:00,
2013-07-23 14:30:00,83.5,29.3,29.68,North,0,0.0,0.0,14,0.00,,---,0.00,VWS V14.01,2013-07-23 21:30:00,
2013-07-23 14:35:00,83.7,29.5,29.68,North,0,0.0,0.0,14,0.00,,---,0.00,VWS V14.01,2013-07-23 21:35:00,
2013-07-23 14:40:00,83.8,29.6,29.68,North,0,0.0,0.0,14,0.00,,---,0.00,VWS V14.01,2013-07-23 21:40:00,
2013-07-23 14:46:00,83.3,29.2,29.68,North,0,0.0,0.0,14,0.00,,---,0.00,VWS V14.01,2013-07-23 21:46:00,
2013-07-23 14:52:00,83.3,29.2,29.68,North,0,0.0,0.0,14,0.00,,---,0.00,VWS V14.01,2013-07-23 21:52:00,
2013-07-23 14:57:00,83.5,29.3,29.68,North,0,0.0,0.0,14,0.00,,---,0.00,VWS V14.01,2013-07-23 21:57:00,
2013-07-23 15:03:00,83.7,29.5,29.68,North,0,0.0,0.0,14,0.00,,---,0.00,VWS V14.01,2013-07-23 22:03:00,
2013-07-23 15:08:00,83.8,29.6,29.68,North,0,0.0,0.0,14,0.00,,---,0.00,VWS V14.01,2013-07-23 22:08:00,
2013-07-23 15:13:00,84.0,29.8,29.68,North,0,0.0,0.0,14,0.00,,---,0.00,VWS V14.01,2013-07-23 22:13:00,
2013-07-23 15:19:00,84.7,28.5,29.68,North,0,0.0,0.0,13,0.00,,---,0.00,VWS V14.01,2013-07-23 22:19:00,
2013-07-23 15:24:00,84.6,28.4,29.68,North,0,0.0,0.0,13,0.00,,---,0.00,VWS V14.01,2013-07-23 22:24:00,
2013-07-23 15:30:00,84.0,29.8,29.65,North,0,0.0,0.0,14,0.00,,---,0.00,VWS V14.01,2013-07-23 22:30:00,
2013-07-23 15:36:00,84.0,29.8,29.65,North,0,0.0,0.0,14,0.00,,---,0.00,VWS V14.01,2013-07-23 22:36:00,
2013-07-23 15:41:00,83.7,29.5,29.65,North,0,0.0,0.0,14,0.00,,---,0.00,VWS V14.01,2013-07-23 22:41:00,
2013-07-23 15:46:00,84.2,28.1,29.65,North,0,0.0,0.0,13,0.00,,---,0.00,VWS V14.01,2013-07-23 22:46:00,
2013-07-23 15:52:00,84.2,28.1,29.65,North,0,0.0,0.0,13,0.00,,---,0.00,VWS V14.01,2013-07-23 22:52:00,
2013-07-23 15:57:00,84.2,28.1,29.65,North,0,0.0,0.0,13,0.00,,---,0.00,VWS V14.01,2013-07-23 22:57:00,
2013-07-23 16:03:00,84.0,29.8,29.65,North,0,0.0,0.0,14,0.00,,---,0.00,VWS V14.01,2013-07-23 23:03:00,
2013-07-23 16:10:00,84.4,28.2,29.65,North,0,0.0,0.0,13,0.00,,---,0.00,VWS V14.01,2013-07-23 23:10:00,
2013-07-23 16:16:00,84.6,28.4,29.65,North,0,0.0,0.0,13,0.00,,---,0.00,VWS V14.01,2013-07-23 23:16:00,
2013-07-23 16:22:00,85.1,28.8,29.65,North,0,0.0,0.0,13,0.00,,---,0.00,VWS V14.01,2013-07-23 23:22:00,
2013-07-23 16:28:00,85.5,29.1,29.65,North,0,0.0,0.0,13,0.00,,---,0.00,VWS V14.01,2013-07-23 23:28:00,
2013-07-23 16:34:00,85.8,29.4,29.65,North,0,0.0,0.0,13,0.00,,---,0.00,VWS V14.01,2013-07-23 23:34:00,
2013-07-23 16:39:00,85.3,28.9,29.65,North,0,0.0,0.0,13,0.00,,---,0.00,VWS V14.01,2013-07-23 23:39:00,
2013-07-23 16:48:00,84.6,28.4,29.65,North,0,0.0,0.0,13,0.00,,---,0.00,VWS V14.01,2013-07-23 23:48:00,
2013-07-23 16:53:00,84.4,28.2,29.65,North,0,0.0,0.0,13,0.00,,---,0.00,VWS V14.01,2013-07-23 23:53:00,
2013-07-23 16:59:00,84.6,28.4,29.65,North,0,0.0,0.0,13,0.00,,---,0.00,VWS V14.01,2013-07-23 23:59:00,
2013-07-23 17:04:00,84.6,28.4,29.65,North,0,0.0,0.0,13,0.00,,---,0.00,VWS V14.01,2013-07-24 00:04:00,
2013-07-23 17:09:00,84.4,28.2,29.65,North,0,0.0,0.0,13,0.00,,---,0.00,VWS V14.01,2013-07-24 00:09:00,
2013-07-23 17:15:00,84.7,28.5,29.65,North,0,0.0,0.0,13,0.00,,---,0.00,VWS V14.01,2013-07-24 00:15:00,
2013-07-23 17:21:00,84.7,28.5,29.65,North,0,0.0,0.0,13,0.00,,---,0.00,VWS V14.01,2013-07-24 00:21:00,
2013-07-23 17:26:00,84.9,28.6,29.65,North,0,0.0,0.0,13,0.00,,---,0.00,VWS V14.01,2013-07-24 00:26:00,
2013-07-23 17:32:00,84.7,28.5,29.65,North,0,0.0,0.0,13,0.00,,---,0.00,VWS V14.01,2013-07-24 00:32:00,
2013-07-23 17:39:00,84.7,28.5,29.65,North,0,0.0,0.0,13,0.00,,---,0.00,VWS V14.01,2013-07-24 00:39:00,
2013-07-23 17:45:00,84.7,28.5,29.65,North,0,0.0,0.0,13,0.00,,---,0.00,VWS V14.01,2013-07-24 00:45:00,
2013-07-23 17:50:00,84.7,28.5,29.65,North,0,0.0,0.0,13,0.00,,---,0.00,VWS V14.01,2013-07-24 00:50:00,
2013-07-23 17:55:00,84.0,29.8,29.65,North,0,0.0,0.0,14,0.00,,---,0.00,VWS V14.01,2013-07-24 00:55:00,
2013-07-23 18:01:00,84.2,28.1,29.65,North,0,0.0,0.0,13,0.00,,---,0.00,VWS V14.01,2013-07-24 01:01:00,
2013-07-23 18:06:00,83.7,29.5,29.65,North,0,0.0,0.0,14,0.00,,---,0.00,VWS V14.01,2013-07-24 01:06:00,
2013-07-23 18:11:00,83.5,29.3,29.65,North,0,0.0,0.0,14,0.00,,---,0.00,VWS V14.01,2013-07-24 01:11:00,
2013-07-23 18:17:00,83.5,29.3,29.65,North,0,0.0,0.0,14,0.00,,---,0.00,VWS V14.01,2013-07-24 01:17:00,
2013-07-23 18:23:00,83.3,29.2,29.65,North,0,0.0,0.0,14,0.00,,---,0.00,VWS V14.01,2013-07-24 01:23:00,
2013-07-23 18:29:00,82.9,28.9,29.65,North,0,0.0,0.0,14,0.00,,---,0.00,VWS V14.01,2013-07-24 01:29:00,
2013-07-23 18:34:00,82.6,28.6,29.65,North,0,0.0,0.0,14,0.00,,---,0.00,VWS V14.01,2013-07-24 01:34:00,
2013-07-23 18:40:00,82.6,28.6,29.65,North,0,0.0,0.0,14,0.00,,---,0.00,VWS V14.01,2013-07-24 01:40:00,
2013-07-23 18:47:00,82.4,28.5,29.65,North,0,0.0,0.0,14,0.00,,---,0.00,VWS V14.01,2013-07-24 01:47:00,
2013-07-23 18:53:00,81.9,28.0,29.65,North,0,0.0,0.0,14,0.00,,---,0.00,VWS V14.01,2013-07-24 01:53:00,
2013-07-23 19:00:00,81.7,27.9,29.65,North,0,0.0,0.0,14,0.00,,---,0.00,VWS V14.01,2013-07-24 02:00:00,
2013-07-23 19:06:00,81.7,27.9,29.65,North,0,0.0,0.0,14,0.00,,---,0.00,VWS V14.01,2013-07-24 02:06:00,
2013-07-23 19:13:00,81.5,27.8,29.65,North,0,0.0,0.0,14,0.00,,---,0.00,VWS V14.01,2013-07-24 02:13:00,
2013-07-23 19:18:00,81.0,27.3,29.65,North,0,0.0,0.0,14,0.00,,---,0.00,VWS V14.01,2013-07-24 02:18:00,
2013-07-23 19:25:00,80.4,28.6,29.65,North,0,0.0,0.0,15,0.00,,---,0.00,VWS V14.01,2013-07-24 02:25:00,
2013-07-23 19:31:00,80.1,28.3,29.65,North,0,0.0,0.0,15,0.00,,---,0.00,VWS V14.01,2013-07-24 02:31:00,
2013-07-23 19:36:00,79.9,28.1,29.65,North,0,0.0,0.0,15,0.00,,---,0.00,VWS V14.01,2013-07-24 02:36:00,
2013-07-23 19:41:00,79.5,27.9,29.65,North,0,0.0,0.0,15,0.00,,---,0.00,VWS V14.01,2013-07-24 02:41:00,
2013-07-23 19:46:00,79.2,27.6,29.65,North,0,0.0,0.0,15,0.00,,---,0.00,VWS V14.01,2013-07-24 02:46:00,
2013-07-23 19:52:00,78.8,27.3,29.65,North,0,0.0,0.0,15,0.00,,---,0.00,VWS V14.01,2013-07-24 02:52:00,
2013-07-23 19:57:00,78.3,26.9,29.65,North,0,0.0,0.0,15,0.00,,---,0.00,VWS V14.01,2013-07-24 02:57:00,
2013-07-23 20:04:00,77.7,26.4,29.65,North,0,0.0,0.0,15,0.00,,---,0.00,VWS V14.01,2013-07-24 03:04:00,
2013-07-23 20:10:00,77.5,26.3,29.65,North,0,0.0,0.0,15,0.00,,---,0.00,VWS V14.01,2013-07-24 03:10:00,
2013-07-23 20:15:00,77.4,26.1,29.65,North,0,0.0,0.0,15,0.00,,---,0.00,VWS V14.01,2013-07-24 03:15:00,
2013-07-23 20:21:00,77.0,25.9,29.65,North,0,0.0,0.0,15,0.00,,---,0.00,VWS V14.01,2013-07-24 03:21:00,
2013-07-23 20:26:00,76.8,25.7,29.65,North,0,0.0,0.0,15,0.00,,---,0.00,VWS V14.01,2013-07-24 03:26:00,
2013-07-23 20:31:00,76.3,25.3,29.65,North,0,0.0,0.0,15,0.00,,---,0.00,VWS V14.01,2013-07-24 03:31:00,
2013-07-23 20:37:00,75.9,25.0,29.65,North,0,0.0,0.0,15,0.00,,---,0.00,VWS V14.01,2013-07-24 03:37:00,
2013-07-23 20:43:00,75.4,24.6,29.65,North,0,0.0,0.0,15,0.00,,---,0.00,VWS V14.01,2013-07-24 03:43:00,
2013-07-23 20:49:00,74.7,25.5,29.65,North,0,0.0,0.0,16,0.00,,---,0.00,VWS V14.01,2013-07-24 03:49:00,
2013-07-23 20:55:00,73.8,24.8,29.65,North,0,0.0,0.0,16,0.00,,---,0.00,VWS V14.01,2013-07-24 03:55:00,
2013-07-23 21:00:00,73.2,24.4,29.68,North,0,0.0,0.0,16,0.00,,---,0.00,VWS V14.01,2013-07-24 04:00:00,
2013-07-23 21:01:00,73.2,24.4,29.68,North,0,0.0,0.0,16,0.00,,---,0.00,VWS V14.01,2013-07-24 04:01:00,
2013-07-23 21:02:00,73.0,24.2,29.68,North,0,0.0,0.0,16,0.00,,---,0.00,VWS V14.01,2013-07-24 04:02:00,
2013-07-23 21:04:00,72.9,24.1,29.68,North,0,0.0,0.0,16,0.00,,---,0.00,VWS V14.01,2013-07-24 04:04:00,
2013-07-23 21:07:00,72.5,23.8,29.68,North,0,0.0,0.0,16,0.00,,---,0.00,VWS V14.01,2013-07-24 04:07:00,
2013-07-23 21:10:00,72.1,27.6,29.68,North,0,0.0,0.0,19,0.00,,---,0.00,VWS V14.01,2013-07-24 04:10:00,
2013-07-23 21:16:00,71.6,27.2,29.68,North,0,0.0,0.0,19,0.00,,---,0.00,VWS V14.01,2013-07-24 04:16:00,
2013-07-23 21:21:00,71.1,26.8,29.68,North,0,0.0,0.0,19,0.00,,---,0.00,VWS V14.01,2013-07-24 04:21:00,
2013-07-23 21:26:00,70.5,26.3,29.68,North,0,0.0,0.0,19,0.00,,---,0.00,VWS V14.01,2013-07-24 04:26:00,
2013-07-23 21:31:00,70.0,25.9,29.68,North,0,0.0,0.0,19,0.00,,---,0.00,VWS V14.01,2013-07-24 04:31:00,
2013-07-23 21:37:00,69.4,29.0,29.68,North,0,0.0,0.0,22,0.00,,---,0.00,VWS V14.01,2013-07-24 04:37:00,
2013-07-23 21:42:00,68.9,28.5,29.68,North,0,0.0,0.0,22,0.00,,---,0.00,VWS V14.01,2013-07-24 04:42:00,
2013-07-23 21:47:00,68.7,28.4,29.68,North,0,0.0,0.0,22,0.00,,---,0.00,VWS V14.01,2013-07-24 04:47:00,
2013-07-23 21:53:00,68.2,27.9,29.68,North,0,0.0,0.0,22,0.00,,---,0.00,VWS V14.01,2013-07-24 04:53:00,
2013-07-23 21:59:00,67.8,28.7,29.68,North,0,0.0,0.0,23,0.00,,---,0.00,VWS V14.01,2013-07-24 04:59:00,
2013-07-23 22:04:00,67.6,28.5,29.68,North,0,0.0,0.0,23,0.00,,---,0.00,VWS V14.01,2013-07-24 05:04:00,
2013-07-23 22:09:00,67.5,28.4,29.68,North,0,0.0,0.0,23,0.00,,---,0.00,VWS V14.01,2013-07-24 05:09:00,
2013-07-23 22:14:00,67.1,29.1,29.68,North,0,0.0,0.0,24,0.00,,---,0.00,VWS V14.01,2013-07-24 05:14:00,
2013-07-23 22:20:00,66.6,28.7,29.68,North,0,0.0,0.0,24,0.00,,---,0.00,VWS V14.01,2013-07-24 05:20:00,
2013-07-23 22:25:00,66.2,29.4,29.68,North,0,0.0,0.0,25,0.00,,---,0.00,VWS V14.01,2013-07-24 05:25:00,
2013-07-23 22:30:00,66.0,30.2,29.71,North,0,0.0,0.0,26,0.00,,---,0.00,VWS V14.01,2013-07-24 05:30:00,
2013-07-23 22:36:00,65.8,31.0,29.71,North,0,0.0,0.0,27,0.00,,---,0.00,VWS V14.01,2013-07-24 05:36:00,
2013-07-23 22:42:00,65.7,30.8,29.71,North,0,0.0,0.0,27,0.00,,---,0.00,VWS V14.01,2013-07-24 05:42:00,
2013-07-23 22:48:00,65.5,30.6,29.71,North,0,0.0,0.0,27,0.00,,---,0.00,VWS V14.01,2013-07-24 05:48:00,
2013-07-23 22:54:00,65.5,30.6,29.71,North,0,0.0,0.0,27,0.00,,---,0.00,VWS V14.01,2013-07-24 05:54:00,
2013-07-23 22:59:00,65.3,30.5,29.71,North,0,0.0,0.0,27,0.00,,---,0.00,VWS V14.01,2013-07-24 05:59:00,
2013-07-23 23:05:00,65.1,30.3,29.71,North,0,0.0,0.0,27,0.00,,---,0.00,VWS V14.01,2013-07-24 06:05:00,
2013-07-23 23:10:00,65.1,30.3,29.71,North,0,0.0,0.0,27,0.00,,---,0.00,VWS V14.01,2013-07-24 06:10:00,
2013-07-23 23:16:00,64.8,30.9,29.71,North,0,0.0,0.0,28,0.00,,---,0.00,VWS V14.01,2013-07-24 06:16:00,
2013-07-23 23:22:00,64.4,31.5,29.71,North,0,0.0,0.0,29,0.00,,---,0.00,VWS V14.01,2013-07-24 06:22:00,
2013-07-23 23:27:00,64.0,32.0,29.71,North,0,0.0,0.0,30,0.00,,---,0.00,VWS V14.01,2013-07-24 06:27:00,
2013-07-23 23:33:00,63.9,32.7,29.71,North,0,0.0,0.0,31,0.00,,---,0.00,VWS V14.01,2013-07-24 06:33:00,
2013-07-23 23:38:00,64.0,32.8,29.71,North,0,0.0,0.0,31,0.00,,---,0.00,VWS V14.01,2013-07-24 06:38:00,
2013-07-23 23:44:00,64.0,32.8,29.71,North,0,0.0,0.0,31,0.00,,---,0.00,VWS V14.01,2013-07-24 06:44:00,
2013-07-23 23:49:00,63.9,32.7,29.71,North,0,0.0,0.0,31,0.00,,---,0.00,VWS V14.01,2013-07-24 06:49:00,
2013-07-23 23:55:00,63.7,33.3,29.71,North,0,0.0,0.0,32,0.00,,---,0.00,VWS V14.01,2013-07-24 06:55:00,